createdAt,value
2017-11-20T00:00:43.890Z,3.03
2017-11-20T00:03:11.353Z,3.93
2017-11-20T00:05:38.816Z,3.90
2017-11-20T00:08:07.278Z,3.40
2017-11-20T00:10:37.553Z,4.13
2017-11-20T00:13:05.027Z,3.40
2017-11-20T00:15:32.562Z,3.40
2017-11-20T00:18:00.056Z,3.87
2017-11-20T00:20:27.522Z,3.40
2017-11-20T00:22:55.009Z,3.30
2017-11-20T00:25:22.493Z,3.20
2017-11-20T00:27:49.962Z,3.20
2017-11-20T00:30:17.448Z,2.83
2017-11-20T00:32:44.940Z,3.20
2017-11-20T00:35:12.441Z,3.00
2017-11-20T00:37:39.915Z,2.60
2017-11-20T00:40:07.392Z,2.60
2017-11-20T00:42:34.881Z,2.50
2017-11-20T00:45:02.337Z,2.47
2017-11-20T00:47:29.860Z,2.40
2017-11-20T00:49:57.337Z,2.80
2017-11-20T00:52:24.808Z,2.90
2017-11-20T00:54:52.836Z,2.53
2017-11-20T00:57:20.296Z,2.57
2017-11-20T00:59:47.771Z,3.17
2017-11-20T01:02:15.903Z,2.33
2017-11-20T01:04:43.451Z,2.60
2017-11-20T01:07:10.892Z,2.90
2017-11-20T01:09:38.372Z,3.00
2017-11-20T01:12:05.824Z,2.73
2017-11-20T01:14:33.280Z,2.60
2017-11-20T01:17:00.777Z,3.30
2017-11-20T01:19:28.272Z,2.67
2017-11-20T01:21:55.753Z,2.67
2017-11-20T01:24:23.254Z,2.90
2017-11-20T01:26:50.691Z,3.10
2017-11-20T01:29:18.153Z,3.40
2017-11-20T01:31:45.682Z,2.80
2017-11-20T01:34:13.185Z,2.43
2017-11-20T01:36:40.674Z,2.80
2017-11-20T01:39:08.133Z,2.43
2017-11-20T01:41:35.574Z,2.60
2017-11-20T01:44:03.037Z,2.47
2017-11-20T01:46:30.535Z,2.63
2017-11-20T01:48:57.981Z,2.07
2017-11-20T01:51:25.424Z,2.90
2017-11-20T01:53:52.907Z,2.00
2017-11-20T01:56:20.705Z,2.70
2017-11-20T01:58:48.169Z,2.70
2017-11-20T02:01:15.661Z,2.73
2017-11-20T02:03:43.118Z,2.90
2017-11-20T02:06:10.669Z,2.47
2017-11-20T02:08:38.124Z,2.40
2017-11-20T02:11:06.923Z,2.63
2017-11-20T02:13:34.394Z,2.50
2017-11-20T02:16:01.877Z,2.60
2017-11-20T02:18:29.996Z,2.63
2017-11-20T02:20:57.445Z,2.40
2017-11-20T02:23:24.937Z,2.40
2017-11-20T02:25:52.387Z,2.43
2017-11-20T02:28:19.853Z,2.50
2017-11-20T02:30:48.171Z,2.70
2017-11-20T02:33:15.647Z,2.73
2017-11-20T02:35:43.136Z,1.90
2017-11-20T02:38:10.612Z,2.53
2017-11-20T02:40:38.080Z,2.30
2017-11-20T02:43:05.588Z,2.30
2017-11-20T02:45:33.057Z,2.13
2017-11-20T02:48:00.534Z,2.63
2017-11-20T02:50:28.004Z,3.10
2017-11-20T02:52:55.477Z,2.17
2017-11-20T02:55:22.943Z,1.83
2017-11-20T02:57:50.451Z,2.50
2017-11-20T03:00:17.937Z,2.37
2017-11-20T03:02:45.372Z,2.40
2017-11-20T03:05:12.842Z,2.50
2017-11-20T03:07:40.431Z,2.80
2017-11-20T03:10:07.910Z,2.13
2017-11-20T03:12:35.383Z,3.17
2017-11-20T03:15:04.138Z,3.10
2017-11-20T03:17:31.635Z,2.70
2017-11-20T03:20:00.188Z,2.30
2017-11-20T03:22:27.641Z,2.50
2017-11-20T03:24:55.108Z,2.40
2017-11-20T03:27:22.928Z,3.40
2017-11-20T03:29:50.375Z,3.23
2017-11-20T03:32:19.064Z,2.90
2017-11-20T03:34:46.547Z,2.67
2017-11-20T03:37:13.986Z,2.80
2017-11-20T03:39:41.529Z,2.70
2017-11-20T03:42:09.024Z,3.30
2017-11-20T03:44:37.948Z,3.67
2017-11-20T03:47:05.422Z,2.33
2017-11-20T03:49:34.820Z,3.50
2017-11-20T03:52:02.319Z,3.30
2017-11-20T03:54:29.825Z,2.60
2017-11-20T03:56:57.302Z,3.23
2017-11-20T03:59:24.808Z,3.40
2017-11-20T04:01:52.275Z,3.40
2017-11-20T04:04:19.735Z,3.40
2017-11-20T04:06:47.268Z,2.83
2017-11-20T04:09:15.160Z,2.67
2017-11-20T04:11:42.612Z,2.80
2017-11-20T04:14:10.085Z,2.60
2017-11-20T04:16:39.658Z,2.67
2017-11-20T04:19:07.100Z,1.90
2017-11-20T04:21:34.553Z,2.43
2017-11-20T04:24:02.006Z,2.30
2017-11-20T04:26:29.460Z,2.40
2017-11-20T04:28:56.936Z,1.80
2017-11-20T04:31:24.383Z,2.80
2017-11-20T04:33:51.832Z,3.27
2017-11-20T04:36:19.291Z,2.40
2017-11-20T04:38:46.734Z,2.50
2017-11-20T04:41:14.205Z,2.60
2017-11-20T04:43:41.641Z,2.53
2017-11-20T04:46:09.097Z,2.87
2017-11-20T04:48:36.590Z,2.23
2017-11-20T04:51:04.100Z,2.40
2017-11-20T04:53:31.546Z,2.53
2017-11-20T04:55:59.009Z,2.60
2017-11-20T04:58:26.445Z,1.97
2017-11-20T05:00:54.797Z,2.30
2017-11-20T05:03:22.254Z,2.50
2017-11-20T05:05:49.755Z,2.27
2017-11-20T05:08:17.669Z,2.97
2017-11-20T05:10:45.170Z,2.60
2017-11-20T05:13:12.645Z,2.43
2017-11-20T05:15:40.095Z,2.90
2017-11-20T05:18:07.555Z,3.13
2017-11-20T05:20:35.018Z,3.10
2017-11-20T05:23:02.476Z,2.73
2017-11-20T05:25:29.982Z,3.13
2017-11-20T05:27:57.460Z,3.20
2017-11-20T05:30:24.930Z,3.30
2017-11-20T05:32:52.417Z,3.67
2017-11-20T05:35:19.874Z,3.10
2017-11-20T05:37:47.382Z,2.77
2017-11-20T05:40:14.866Z,2.90
2017-11-20T05:42:42.308Z,3.43
2017-11-20T05:45:09.773Z,3.33
2017-11-20T05:47:37.208Z,3.27
2017-11-20T05:50:04.695Z,3.00
2017-11-20T05:52:32.261Z,3.03
2017-11-20T05:54:59.740Z,2.83
2017-11-20T05:57:27.197Z,3.43
2017-11-20T05:59:54.685Z,2.73
2017-11-20T06:02:22.187Z,3.03
2017-11-20T06:04:49.773Z,3.13
2017-11-20T06:07:17.285Z,3.60
2017-11-20T06:09:44.795Z,3.37
2017-11-20T06:12:12.644Z,2.97
2017-11-20T06:14:40.194Z,2.77
2017-11-20T06:17:07.666Z,4.30
2017-11-20T06:19:35.130Z,3.33
2017-11-20T06:22:02.594Z,3.97
2017-11-20T06:24:31.062Z,3.50
2017-11-20T06:26:58.629Z,3.60
2017-11-20T06:29:26.106Z,3.77
2017-11-20T06:31:53.594Z,4.67
2017-11-20T06:34:21.033Z,3.60
2017-11-20T06:36:48.560Z,3.37
2017-11-20T06:39:17.365Z,4.67
2017-11-20T06:41:44.829Z,4.47
2017-11-20T06:44:12.265Z,3.90
2017-11-20T06:46:39.744Z,4.37
2017-11-20T06:49:07.193Z,4.30
2017-11-20T06:51:34.638Z,4.10
2017-11-20T06:54:02.157Z,3.90
2017-11-20T06:56:29.629Z,3.83
2017-11-20T06:58:57.092Z,4.30
2017-11-20T07:01:24.556Z,4.60
2017-11-20T07:03:52.057Z,4.30
2017-11-20T07:06:19.531Z,4.10
2017-11-20T07:08:47.109Z,3.80
2017-11-20T07:11:14.558Z,4.77
2017-11-20T07:13:42.020Z,4.10
2017-11-20T07:16:09.494Z,4.60
2017-11-20T07:18:36.945Z,4.03
2017-11-20T07:21:05.793Z,4.30
2017-11-20T07:23:33.292Z,5.33
2017-11-20T07:26:12.462Z,4.40
2017-11-20T07:28:52.216Z,4.83
2017-11-20T07:31:28.465Z,4.30
2017-11-20T07:34:07.749Z,4.67
2017-11-20T07:36:47.736Z,4.03
2017-11-20T07:39:16.642Z,4.27
2017-11-20T07:41:52.052Z,4.87
2017-11-20T07:44:19.530Z,4.77
2017-11-20T07:46:47.069Z,4.60
2017-11-20T07:51:48.445Z,4.20
2017-11-20T07:54:15.901Z,4.60
2017-11-20T07:56:43.860Z,4.97
2017-11-20T07:59:11.357Z,4.20
2017-11-20T08:01:38.877Z,4.27
2017-11-20T08:04:06.352Z,3.40
2017-11-20T08:06:33.827Z,4.43
2017-11-20T08:09:01.298Z,4.03
2017-11-20T08:11:28.754Z,6.77
2017-11-20T08:13:56.216Z,4.00
2017-11-20T08:16:23.680Z,5.57
2017-11-20T08:18:51.135Z,3.40
2017-11-20T08:21:19.364Z,5.50
2017-11-20T08:23:46.840Z,4.40
2017-11-20T08:26:14.291Z,4.27
2017-11-20T08:28:41.757Z,4.47
2017-11-20T08:31:09.205Z,4.30
2017-11-20T08:33:36.665Z,3.80
2017-11-20T08:36:04.129Z,3.93
2017-11-20T08:38:31.673Z,4.60
2017-11-20T08:40:59.148Z,4.20
2017-11-20T08:43:26.598Z,4.20
2017-11-20T08:45:54.100Z,4.70
2017-11-20T08:48:21.567Z,5.20
2017-11-20T08:50:49.023Z,5.30
2017-11-20T08:53:16.509Z,5.50
2017-11-20T08:55:44.012Z,4.67
2017-11-20T08:58:11.452Z,4.83
2017-11-20T09:00:38.971Z,4.07
2017-11-20T09:03:06.528Z,4.27
2017-11-20T09:05:34.005Z,5.23
2017-11-20T09:08:01.460Z,4.03
2017-11-20T09:10:28.953Z,4.90
2017-11-20T09:12:56.531Z,4.20
2017-11-20T09:15:24.018Z,4.40
2017-11-20T09:17:51.468Z,4.13
2017-11-20T09:20:19.614Z,4.13
2017-11-20T09:22:47.064Z,4.70
2017-11-20T09:25:14.557Z,3.80
2017-11-20T09:27:41.996Z,3.57
2017-11-20T09:30:09.477Z,4.20
2017-11-20T09:32:36.972Z,4.37
2017-11-20T09:35:04.425Z,5.17
2017-11-20T09:37:31.898Z,4.13
2017-11-20T09:39:59.373Z,4.83
2017-11-20T09:42:31.277Z,3.87
2017-11-20T09:44:58.775Z,7.60
2017-11-20T09:47:26.249Z,7.10
2017-11-20T09:49:53.705Z,4.17
2017-11-20T09:52:21.174Z,4.53
2017-11-20T09:54:49.051Z,4.23
2017-11-20T09:57:17.769Z,5.30
2017-11-20T09:59:45.277Z,4.30
2017-11-20T10:02:12.733Z,3.90
2017-11-20T10:04:40.257Z,4.30
2017-11-20T10:07:07.754Z,4.47
2017-11-20T10:09:35.225Z,4.37
2017-11-20T10:12:02.732Z,4.10
2017-11-20T10:14:30.252Z,4.10
2017-11-20T10:16:57.828Z,3.53
2017-11-20T10:19:25.283Z,3.33
2017-11-20T10:21:52.778Z,4.50
2017-11-20T10:24:20.251Z,5.00
2017-11-20T10:26:47.706Z,3.63
2017-11-20T10:29:15.197Z,4.67
2017-11-20T10:31:42.708Z,3.63
2017-11-20T10:34:10.281Z,5.20
2017-11-20T10:36:37.736Z,4.47
2017-11-20T10:39:05.194Z,3.60
2017-11-20T10:41:32.671Z,4.03
2017-11-20T10:44:00.136Z,4.07
2017-11-20T10:46:27.591Z,4.20
2017-11-20T10:48:55.079Z,4.23
2017-11-20T10:51:22.555Z,4.43
2017-11-20T10:53:50.010Z,3.83
2017-11-20T10:56:17.602Z,4.10
2017-11-20T10:58:45.150Z,5.20
2017-11-20T11:01:12.662Z,5.20
2017-11-20T11:03:40.202Z,4.87
2017-11-20T11:06:07.663Z,6.50
2017-11-20T11:08:37.322Z,6.30
2017-11-20T11:11:04.841Z,6.83
2017-11-20T11:13:32.297Z,4.57
2017-11-20T11:15:59.766Z,5.30
2017-11-20T11:18:31.196Z,3.70
2017-11-20T11:20:58.654Z,6.47
2017-11-20T11:23:26.119Z,6.70
2017-11-20T11:25:53.588Z,5.47
2017-11-20T11:28:21.053Z,5.40
2017-11-20T11:30:51.233Z,6.50
2017-11-20T11:33:20.492Z,5.10
2017-11-20T11:35:47.975Z,4.00
2017-11-20T11:38:15.427Z,3.87
2017-11-20T11:40:42.882Z,3.67
2017-11-20T11:43:10.356Z,4.07
2017-11-20T11:45:38.474Z,3.80
2017-11-20T11:48:05.933Z,4.13
2017-11-20T11:50:33.698Z,4.40
2017-11-20T11:53:01.166Z,3.73
2017-11-20T11:55:28.693Z,3.47
2017-11-20T11:57:56.155Z,3.70
2017-11-20T12:00:23.615Z,4.80
2017-11-20T12:02:51.098Z,3.97
2017-11-20T12:05:18.549Z,4.03
2017-11-20T12:07:46.025Z,3.37
2017-11-20T12:10:13.537Z,3.90
2017-11-20T12:12:41.025Z,3.23
2017-11-20T12:15:08.533Z,5.20
2017-11-20T12:17:36.002Z,4.30
2017-11-20T12:20:03.535Z,5.57
2017-11-20T12:22:31.019Z,3.80
2017-11-20T12:24:58.506Z,4.07
2017-11-20T12:27:26.004Z,3.77
2017-11-20T12:29:53.465Z,3.70
2017-11-20T12:32:21.732Z,3.77
2017-11-20T12:34:49.218Z,4.73
2017-11-20T12:37:16.689Z,4.10
2017-11-20T12:39:44.207Z,4.00
2017-11-20T12:42:11.704Z,6.20
2017-11-20T12:44:41.794Z,7.63
2017-11-20T12:47:09.320Z,5.00
2017-11-20T12:49:36.801Z,3.60
2017-11-20T12:52:04.272Z,3.87
2017-11-20T12:54:31.746Z,4.03
2017-11-20T12:56:59.245Z,4.83
2017-11-20T12:59:26.704Z,4.30
2017-11-20T13:01:54.160Z,4.20
2017-11-20T13:04:23.184Z,4.00
2017-11-20T13:06:50.935Z,4.10
2017-11-20T13:09:19.283Z,3.60
2017-11-20T13:11:46.762Z,3.37
2017-11-20T13:14:14.225Z,3.40
2017-11-20T13:16:41.694Z,3.67
2017-11-20T13:19:09.167Z,3.63
2017-11-20T13:21:36.640Z,3.10
2017-11-20T13:24:04.126Z,3.63
2017-11-20T13:26:31.612Z,4.50
2017-11-20T13:28:59.081Z,4.27
2017-11-20T13:31:26.561Z,4.30
2017-11-20T13:33:54.065Z,3.70
2017-11-20T13:36:21.580Z,4.27
2017-11-20T13:38:49.071Z,4.50
2017-11-20T13:41:16.578Z,4.23
2017-11-20T13:43:44.090Z,4.20
2017-11-20T13:46:11.561Z,3.60
2017-11-20T13:48:39.072Z,4.67
2017-11-20T13:51:06.652Z,4.20
2017-11-20T13:53:34.141Z,4.20
2017-11-20T13:56:01.649Z,4.40
2017-11-20T13:58:29.118Z,3.90
2017-11-20T14:00:56.576Z,4.30
2017-11-20T14:03:24.098Z,4.10
2017-11-20T14:05:51.632Z,3.90
2017-11-20T14:08:19.142Z,3.87
2017-11-20T14:10:46.625Z,3.90
2017-11-20T14:13:14.074Z,4.17
2017-11-20T14:15:41.562Z,3.20
2017-11-20T14:18:09.132Z,3.43
2017-11-20T14:20:36.601Z,3.13
2017-11-20T14:23:04.115Z,4.00
2017-11-20T14:25:31.594Z,4.33
2017-11-20T14:27:59.140Z,3.57
2017-11-20T14:30:28.312Z,3.97
2017-11-20T14:32:55.808Z,3.60
2017-11-20T14:35:23.269Z,4.20
2017-11-20T14:37:50.753Z,3.63
2017-11-20T14:40:18.289Z,4.10
2017-11-20T14:42:49.460Z,5.03
2017-11-20T14:45:19.243Z,4.10
2017-11-20T14:47:46.738Z,4.00
2017-11-20T14:50:14.271Z,4.80
2017-11-20T14:52:41.869Z,4.83
2017-11-20T14:55:09.389Z,4.20
2017-11-20T14:57:36.878Z,4.40
2017-11-20T15:00:04.395Z,4.50
2017-11-20T15:02:34.258Z,4.43
2017-11-20T15:05:01.817Z,4.17
2017-11-20T15:07:29.289Z,4.10
2017-11-20T15:09:56.789Z,4.60
2017-11-20T15:12:24.333Z,4.20
2017-11-20T15:14:51.834Z,4.40
2017-11-20T15:17:19.331Z,4.53
2017-11-20T15:19:46.804Z,4.70
2017-11-20T15:22:14.281Z,4.50
2017-11-20T15:24:41.809Z,5.37
2017-11-20T15:27:09.813Z,5.00
2017-11-20T15:29:37.487Z,4.40
2017-11-20T15:32:04.983Z,4.30
2017-11-20T15:34:32.670Z,4.67
2017-11-20T15:37:00.191Z,4.83
2017-11-20T15:39:27.665Z,5.07
2017-11-20T15:41:55.178Z,4.67
2017-11-20T15:44:22.690Z,5.20
2017-11-20T15:46:50.177Z,4.37
2017-11-20T15:49:17.666Z,5.07
2017-11-20T15:51:45.137Z,5.13
2017-11-20T15:54:12.609Z,4.78
2017-11-20T15:56:40.086Z,4.23
2017-11-20T15:59:08.405Z,5.63
2017-11-20T16:01:35.874Z,5.00
2017-11-20T16:04:04.175Z,5.00
2017-11-20T16:06:32.661Z,5.30
2017-11-20T16:09:00.147Z,6.10
2017-11-20T16:11:27.675Z,5.63
2017-11-20T16:13:55.312Z,5.87
2017-11-20T16:16:22.812Z,6.73
2017-11-20T16:18:50.297Z,5.77
2017-11-20T16:21:20.915Z,6.00
2017-11-20T16:23:48.464Z,6.23
2017-11-20T16:26:16.142Z,5.20
2017-11-20T16:28:43.681Z,5.77
2017-11-20T16:31:11.148Z,5.90
2017-11-20T16:33:40.005Z,5.43
2017-11-20T16:36:07.631Z,6.20
2017-11-20T16:38:37.531Z,5.33
2017-11-20T16:41:05.045Z,5.63
2017-11-20T16:43:32.657Z,4.50
2017-11-20T16:46:00.131Z,4.50
2017-11-20T16:48:29.852Z,6.07
2017-11-20T16:50:57.404Z,4.90
2017-11-20T16:53:26.175Z,5.53
2017-11-20T16:55:53.698Z,5.10
2017-11-20T16:58:36.857Z,4.70
2017-11-20T17:01:04.387Z,4.60
2017-11-20T17:03:32.784Z,5.00
2017-11-20T17:06:00.369Z,4.17
2017-11-20T17:08:27.838Z,4.60
2017-11-20T17:10:55.327Z,4.47
2017-11-20T17:16:19.886Z,4.70
2017-11-20T17:18:50.140Z,4.60
2017-11-20T17:21:17.902Z,4.03
2017-11-20T17:23:46.317Z,5.30
2017-11-20T17:26:13.803Z,5.37
2017-11-20T17:28:41.256Z,5.80
2017-11-20T17:31:08.723Z,6.17
2017-11-20T17:33:36.212Z,5.83
2017-11-20T17:36:04.335Z,6.90
2017-11-20T17:38:31.884Z,6.20
2017-11-20T17:40:59.516Z,5.13
2017-11-20T17:43:27.005Z,5.27
2017-11-20T17:45:54.505Z,5.30
2017-11-20T17:48:23.289Z,4.20
2017-11-20T17:50:50.896Z,6.10
2017-11-20T17:53:18.396Z,4.40
2017-11-20T17:55:45.860Z,4.97
2017-11-20T17:58:13.926Z,4.80
2017-11-20T18:00:41.653Z,4.07
2017-11-20T18:03:09.429Z,4.30
2017-11-20T18:05:37.125Z,5.13
2017-11-20T18:08:04.727Z,4.53
2017-11-20T18:10:32.377Z,7.67
2017-11-20T18:12:59.923Z,5.20
2017-11-20T18:15:27.469Z,4.73
2017-11-20T18:17:55.263Z,5.53
2017-11-20T18:20:22.777Z,4.30
2017-11-20T18:22:50.359Z,5.40
2017-11-20T18:25:17.877Z,4.80
2017-11-20T18:27:45.459Z,5.00
2017-11-20T18:30:12.936Z,5.70
2017-11-20T18:32:42.481Z,4.23
2017-11-20T18:35:10.122Z,4.53
2017-11-20T18:37:38.309Z,4.20
2017-11-20T18:40:05.922Z,4.33
2017-11-20T18:42:36.133Z,4.27
2017-11-20T18:45:05.035Z,3.63
2017-11-20T18:47:33.024Z,4.13
2017-11-20T18:50:00.517Z,3.63
2017-11-20T18:52:28.199Z,3.43
2017-11-20T18:54:55.786Z,3.93
2017-11-20T18:57:25.507Z,3.70
2017-11-20T19:03:19.706Z,4.17
2017-11-20T19:05:59.136Z,3.50
2017-11-20T19:08:40.152Z,3.50
2017-11-20T19:11:07.799Z,2.90
2017-11-20T19:13:35.485Z,3.67
2017-11-20T19:16:03.705Z,3.33
2017-11-20T19:18:31.568Z,3.57
2017-11-20T19:20:59.036Z,3.20
2017-11-20T19:23:26.497Z,3.50
2017-11-20T19:25:53.954Z,3.40
2017-11-20T19:28:21.419Z,3.27
2017-11-20T19:30:49.934Z,3.77
2017-11-20T19:33:17.643Z,3.10
2017-11-20T19:35:45.193Z,3.20
2017-11-20T19:38:12.748Z,3.10
2017-11-20T19:40:40.270Z,3.47
2017-11-20T19:43:07.855Z,2.90
2017-11-20T19:45:35.398Z,3.10
2017-11-20T19:48:03.649Z,3.10
2017-11-20T19:50:31.111Z,4.47
2017-11-20T19:52:59.688Z,3.90
2017-11-20T19:55:27.368Z,3.33
2017-11-20T19:57:54.838Z,2.67
2017-11-20T20:00:22.305Z,2.40
2017-11-20T20:02:49.757Z,3.20
2017-11-20T20:05:18.971Z,3.60
2017-11-20T20:07:56.226Z,3.40
2017-11-20T20:10:24.529Z,3.13
2017-11-20T20:12:52.145Z,3.50
2017-11-20T20:15:32.124Z,3.40
2017-11-20T20:18:00.290Z,3.13
2017-11-20T20:20:28.282Z,2.87
2017-11-20T20:22:55.903Z,3.13
2017-11-20T20:25:23.403Z,3.30
2017-11-20T20:27:50.899Z,2.90
2017-11-20T20:30:19.136Z,2.70
2017-11-20T20:32:47.460Z,3.50
2017-11-20T20:35:14.929Z,2.83
2017-11-20T20:37:42.450Z,3.63
2017-11-20T20:40:09.894Z,2.93
2017-11-20T20:42:37.395Z,3.50
2017-11-20T20:45:05.675Z,3.17
2017-11-20T20:47:33.180Z,3.60
2017-11-20T20:50:00.684Z,3.40
2017-11-20T20:52:28.195Z,3.90
2017-11-20T20:54:55.921Z,3.90
2017-11-20T20:57:23.559Z,3.70
2017-11-20T20:59:50.904Z,3.17
2017-11-20T21:02:18.421Z,4.07
2017-11-20T21:04:45.894Z,3.47
2017-11-20T21:07:13.373Z,4.10
2017-11-20T21:09:46.336Z,4.40
2017-11-20T21:12:18.638Z,4.57
2017-11-20T21:14:46.175Z,4.17
2017-11-20T21:17:13.790Z,3.53
2017-11-20T21:19:41.313Z,3.10
2017-11-20T21:22:08.790Z,4.40
2017-11-20T21:24:36.516Z,3.57
2017-11-20T21:27:03.983Z,3.60
2017-11-20T21:29:31.493Z,3.63
2017-11-20T21:31:58.934Z,3.50
2017-11-20T21:34:26.693Z,4.43
2017-11-20T21:36:54.173Z,4.03
2017-11-20T21:39:21.616Z,3.83
2017-11-20T21:41:49.114Z,3.90
2017-11-20T21:44:16.746Z,3.73
2017-11-20T21:46:44.280Z,4.00
2017-11-20T21:49:11.733Z,3.00
2017-11-20T21:51:39.206Z,2.70
2017-11-20T21:54:06.697Z,2.77
2017-11-20T21:56:34.422Z,2.93
2017-11-20T21:59:01.937Z,3.43
2017-11-20T22:01:29.382Z,3.07
2017-11-20T22:03:56.897Z,3.50
2017-11-20T22:06:24.425Z,3.20
2017-11-20T22:08:51.908Z,4.27
2017-11-20T22:11:19.412Z,3.87
2017-11-20T22:13:47.807Z,4.07
2017-11-20T22:16:15.737Z,3.80
2017-11-20T22:18:43.278Z,3.47
2017-11-20T22:21:11.547Z,2.90
2017-11-20T22:23:39.029Z,3.57
2017-11-20T22:26:06.480Z,3.90
2017-11-20T22:28:38.134Z,3.93
2017-11-20T22:31:05.713Z,3.13
2017-11-20T22:33:33.496Z,3.63
2017-11-20T22:36:01.006Z,3.30
2017-11-20T22:38:28.488Z,3.03
2017-11-20T22:40:55.969Z,3.37
2017-11-20T22:43:23.518Z,4.13
2017-11-20T22:45:51.020Z,4.13
2017-11-20T22:48:18.473Z,4.33
2017-11-20T22:50:45.995Z,3.63
2017-11-20T22:53:13.471Z,3.77
2017-11-20T22:55:41.008Z,4.00
2017-11-20T22:58:08.695Z,4.00
2017-11-20T23:00:36.198Z,4.10
2017-11-20T23:03:03.709Z,4.03
2017-11-20T23:05:31.236Z,5.43
2017-11-20T23:07:59.320Z,5.07
2017-11-20T23:10:26.789Z,4.33
2017-11-20T23:12:54.327Z,4.67
2017-11-20T23:15:21.791Z,3.97
2017-11-20T23:17:49.255Z,4.83
2017-11-20T23:20:17.190Z,4.83
2017-11-20T23:22:44.654Z,4.40
2017-11-20T23:25:12.146Z,4.30
2017-11-20T23:27:39.800Z,5.20
2017-11-20T23:30:07.279Z,4.60
2017-11-20T23:32:37.929Z,4.87
2017-11-20T23:35:05.492Z,4.07
2017-11-20T23:37:33.032Z,5.33
2017-11-20T23:40:00.495Z,5.33
2017-11-20T23:42:30.904Z,4.57
2017-11-20T23:44:58.419Z,4.70
2017-11-20T23:47:26.124Z,5.13
2017-11-20T23:49:53.645Z,4.97
2017-11-20T23:52:23.098Z,4.80
2017-11-20T23:54:51.052Z,4.97
2017-11-20T23:57:21.352Z,4.47
2017-11-20T23:59:48.804Z,4.37
